地図

経路データ

SID SEASON NUMBER BASIN SUBBASIN NAME ISO_TIME NATURE LAT LON WMO_WIND WMO_PRES WMO_AGENCY TRACK_TYPE DIST2LAND LANDFALL IFLAG USA_AGENCY USA_ATCF_ID USA_LAT USA_LON USA_RECORD USA_STATUS USA_WIND USA_PRES USA_SSHS USA_R34_NE USA_R34_SE USA_R34_SW USA_R34_NW USA_R50_NE USA_R50_SE USA_R50_SW USA_R50_NW USA_R64_NE USA_R64_SE USA_R64_SW USA_R64_NW USA_POCI USA_ROCI USA_RMW USA_EYE TOKYO_LAT TOKYO_LON TOKYO_GRADE TOKYO_WIND TOKYO_PRES TOKYO_R50_DIR TOKYO_R50_LONG TOKYO_R50_SHORT TOKYO_R30_DIR TOKYO_R30_LONG TOKYO_R30_SHORT TOKYO_LAND CMA_LAT CMA_LON CMA_CAT CMA_WIND CMA_PRES HKO_LAT HKO_LON HKO_CAT HKO_WIND HKO_PRES NEWDELHI_LAT NEWDELHI_LON NEWDELHI_GRADE NEWDELHI_WIND NEWDELHI_PRES NEWDELHI_CI NEWDELHI_DP NEWDELHI_POCI REUNION_LAT REUNION_LON REUNION_TYPE REUNION_WIND REUNION_PRES REUNION_TNUM REUNION_CI REUNION_RMW REUNION_R34_NE REUNION_R34_SE REUNION_R34_SW REUNION_R34_NW REUNION_R50_NE REUNION_R50_SE REUNION_R50_SW REUNION_R50_NW REUNION_R64_NE REUNION_R64_SE REUNION_R64_SW REUNION_R64_NW BOM_LAT BOM_LON BOM_TYPE BOM_WIND BOM_PRES BOM_TNUM BOM_CI BOM_RMW BOM_R34_NE BOM_R34_SE BOM_R34_SW BOM_R34_NW BOM_R50_NE BOM_R50_SE BOM_R50_SW BOM_R50_NW BOM_R64_NE BOM_R64_SE BOM_R64_SW BOM_R64_NW BOM_ROCI BOM_POCI BOM_EYE BOM_POS_METHOD BOM_PRES_METHOD NADI_LAT NADI_LON NADI_CAT NADI_WIND NADI_PRES WELLINGTON_LAT WELLINGTON_LON WELLINGTON_WIND WELLINGTON_PRES DS824_LAT DS824_LON DS824_STAGE DS824_WIND DS824_PRES TD9636_LAT TD9636_LON TD9636_STAGE TD9636_WIND TD9636_PRES TD9635_LAT TD9635_LON TD9635_WIND TD9635_PRES TD9635_ROCI NEUMANN_LAT NEUMANN_LON NEUMANN_CLASS NEUMANN_WIND NEUMANN_PRES MLC_LAT MLC_LON MLC_CLASS MLC_WIND MLC_PRES USA_GUST BOM_GUST BOM_GUST_PER REUNION_GUST REUNION_GUST_PER USA_SEAHGT USA_SEARAD_NE USA_SEARAD_SE USA_SEARAD_SW USA_SEARAD_NW STORM_SPEED STORM_DIR
1977001S11086 1977 1 SI MM CLARENCE 1977-01-01 00:00:00 TS -10.8000 86.2000 main 1734 1734 ____________O_ -1 -10.8000 86.2000 TC 30 3 252
1977001S11086 1977 1 SI MM CLARENCE 1977-01-01 03:00:00 TS -10.8500 86.0500 main 1750 1743 ____________P_ -1 -10.8500 86.0500 TC 30 2 252
1977001S11086 1977 1 SI MM CLARENCE 1977-01-01 06:00:00 TS -10.8500 86.0500 main 1743 1752 O________OO_O_ jtwc_sh SH051977 -10.8000 86.2000 -1 -10.8000 86.2000 TC 25 -10.8000 86.2000 1 -10.9000 85.9000 TC 30 1 251
1977001S11086 1977 1 SI MM CLARENCE 1977-01-01 09:00:00 TS -10.8900 85.9297 main 1768 1768 P________PP_P_ SH051977 -10.8500 86.0500 -1 -10.8500 86.0500 TC 25 -10.8501 86.0485 1 -10.9500 85.7500 TC 30 3 251
1977001S11086 1977 1 SI MM CLARENCE 1977-01-01 12:00:00 TS -10.9308 85.8071 main 1777 1777 O________OP_O_ jtwc_sh SH051977 -10.9000 85.9000 -1 -10.9000 85.9000 TC 25 -10.9001 85.8975 1 -11.0000 85.6000 TC 30 3 251
1977001S11086 1977 1 SI MM CLARENCE 1977-01-01 15:00:00 TS -10.9750 85.6745 main 1792 1792 P________PP_P_ SH051977 -10.9500 85.7500 -1 -10.9500 85.7500 TC 25 -10.9500 85.7478 1 -11.0500 85.4500 TC 30 3 251
1977001S11086 1977 1 SI MM CLARENCE 1977-01-01 18:00:00 TS -11.0250 85.5250 main 1810 1810 O________OO_O_ jtwc_sh SH051977 -11.0000 85.6000 -1 -11.0000 85.6000 TC 25 -11.0000 85.6000 1 -11.1000 85.3000 TC 30 3 251
1977001S11086 1977 1 SI MM CLARENCE 1977-01-01 21:00:00 TS -11.0750 85.3760 main 1825 1825 P________PP_P_ SH051977 -11.0500 85.4500 -1 -11.0500 85.4500 TC 25 -11.0500 85.4540 1 -11.1500 85.1500 TC 30 3 251
1977001S11086 1977 1 SI MM CLARENCE 1977-01-02 00:00:00 TS -11.1250 85.2269 main 1843 1843 O________OP_O_ jtwc_sh SH051977 -11.1000 85.3000 -1 -11.1000 85.3000 TC 25 -11.0999 85.3075 1 -11.2000 85.0000 TC 30 3 251
1977001S11086 1977 1 SI MM CLARENCE 1977-01-02 03:00:00 TS -11.1750 85.0787 main 1859 1859 P________PP_P_ SH051977 -11.1500 85.1500 -1 -11.1500 85.1500 TC 25 -11.1500 85.1572 1 -11.2500 84.8575 TC 30 3 251
1977001S11086 1977 1 SI MM CLARENCE 1977-01-02 06:00:00 TS -11.2250 84.9250 main 1877 1877 O________OO_O_ jtwc_sh SH051977 -11.2000 85.0000 -1 -11.2000 85.0000 TC 25 -11.2000 85.0000 1 -11.3000 84.7000 TC 30 3 252
1977001S11086 1977 1 SI MM CLARENCE 1977-01-02 09:00:00 TS -11.2760 84.7618 main 1892 1892 P________PP_P_ SH051977 -11.2500 84.8575 -1 -11.2500 84.8575 TC 25 -11.2541 84.8322 1 -11.3500 84.5000 TC 30 3 253
1977001S11086 1977 1 SI MM CLARENCE 1977-01-02 12:00:00 TS -11.3269 84.5894 main 1910 1910 O________OP_O_ jtwc_sh SH051977 -11.3000 84.7000 -1 -11.3000 84.7000 TC 25 -11.3075 84.6575 1 -11.4000 84.3000 TC 30 4 254
1977001S11086 1977 1 SI MM CLARENCE 1977-01-02 15:00:00 TS -11.3787 84.4073 main 1935 1935 P________PP_P_ SH051977 -11.3500 84.5000 -1 -11.3500 84.5000 TC 25 -11.3572 84.4791 1 -11.4575 84.1500 TC 30 4 255
1977001S11086 1977 1 SI MM CLARENCE 1977-01-02 18:00:00 TS -11.4250 84.2250 main 1953 1953 O________OO_O_ jtwc_sh SH051977 -11.4000 84.3000 -1 -11.4000 84.3000 TC 25 -11.4000 84.3000 1 -11.5000 84.0000 TC 30 3 256
1977001S11086 1977 1 SI MM CLARENCE 1977-01-02 21:00:00 TS -11.4636 84.0630 main 1968 1968 P________PP_P_ SH051977 -11.4575 84.1500 -1 -11.4575 84.1500 TC 25 -11.4321 84.1371 1 -11.5075 83.8150 TC 30 3 259
1977001S11086 1977 1 SI MM CLARENCE 1977-01-03 00:00:00 TS -11.4893 83.8931 main 1983 1979 O________OP_O_ jtwc_sh SH051977 -11.5000 84.0000 -1 -11.5000 84.0000 TC 25 -11.4574 83.9724 1 -11.5000 83.6000 TC 30 4 265
1977001S11086 1977 1 SI MM CLARENCE 1977-01-03 03:00:00 TS -11.4966 83.6960 main 1979 1975 P________PP_P_ SH051977 -11.5075 83.8150 -1 -11.5075 83.8150 TC 25 -11.4790 83.7965 1 -11.4925 83.3575 TC 30 4 269
1977001S11086 1977 1 SI MM CLARENCE 1977-01-03 06:00:00 TS -11.5000 83.4750 main 1975 1970 O________OO_O_ jtwc_sh SH051977 -11.5000 83.6000 -1 -11.5000 83.6000 TC 25 -11.5000 83.6000 1 -11.5000 83.1000 TC 30 5 268
1977001S11086 1977 1 SI MM CLARENCE 1977-01-03 09:00:00 TS -11.5150 83.2302 main 1970 1967 P________PP_P_ SH051977 -11.4925 83.3575 -1 -11.4925 83.3575 TC 25 -11.5251 83.3634 1 -11.5500 82.8425 TC 30 5 266
1977001S11086 1977 1 SI MM CLARENCE 1977-01-03 12:00:00 TS -11.5375 82.9769 main 1967 1966 O________OP_O_ jtwc_sh SH051977 -11.5000 83.1000 -1 -11.5000 83.1000 TC 25 -11.5501 83.1075 1 -11.6000 82.6000 TC 30 5 264
1977001S11086 1977 1 SI MM CLARENCE 1977-01-03 15:00:00 TS -11.5688 82.7313 main 1974 1972 P________PP_P_ SH051977 -11.5500 82.8425 -1 -11.5500 82.8425 TC 25 -11.5751 82.8478 1 -11.6000 82.3925 TC 30 5 262
1977001S11086 1977 1 SI MM CLARENCE 1977-01-03 18:00:00 TS -11.6000 82.5000 main 1972 1969 O________OO_O_ jtwc_sh SH051977 -11.6000 82.6000 -1 -11.6000 82.6000 TC 25 -11.6000 82.6000 1 -11.6000 82.2000 TC 30 4 263
1977001S11086 1977 1 SI MM CLARENCE 1977-01-03 21:00:00 TS -11.6157 82.3121 main 1969 1967 P________PP_P_ SH051977 -11.6000 82.3925 -1 -11.6000 82.3925 TC 25 -11.6206 82.4261 1 -11.6424 82.0375 TC 32 4 265
1977001S11086 1977 1 SI MM CLARENCE 1977-01-04 00:00:00 TS -11.6355 82.1150 main 1967 1966 O________OP_O_ jtwc_sh SH051977 -11.6000 82.2000 -1 -11.6000 82.2000 TC 25 -11.6419 82.2598 1 -11.7000 81.8000 TC 35 4 262
1977001S11086 1977 1 SI MM CLARENCE 1977-01-04 03:00:00 TS -11.6756 81.8778 main 1977 1975 P________PP_P_ SH051977 -11.6424 82.0300 -1 -11.6424 82.0300 TC 30 -11.6673 82.0636 1 -11.7501 81.3875 TC 35 5 260
1977001S11086 1977 1 SI MM CLARENCE 1977-01-04 06:00:00 TS -11.7250 81.5750 main 1975 1973 O________OO_O_ jtwc_sh SH051977 -11.7000 81.8000 -1 -11.7000 81.8000 TC 35 -11.7000 81.8000 2 -11.8000 80.9000 TC 35 7 262
1977001S11086 1977 1 SI MM CLARENCE 1977-01-04 09:00:00 TS -11.7742 81.1954 main 1984 1983 P________PP_P_ SH051977 -11.7500 81.4450 -1 -11.7500 81.4450 TC 35 -11.7469 81.4341 2 -11.8499 80.4575 TC 35 8 263
1977001S11086 1977 1 SI MM CLARENCE 1977-01-04 12:00:00 TS -11.8250 80.7494 main 1983 1983 O________OP_O_ jtwc_sh SH051977 -11.8000 81.0000 -1 -11.8000 81.0000 TC 35 -11.8001 80.9975 2 -11.9000 80.0000 TC 35 9 263
1977001S11086 1977 1 SI MM CLARENCE 1977-01-04 15:00:00 TS -11.8814 80.2643 main 1994 1994 P________PP_P_ SH051977 -11.8575 80.5150 -1 -11.8575 80.5150 TC 35 -11.8531 80.5122 2 -11.9574 79.5150 TC 35 10 264
1977001S11086 1977 1 SI MM CLARENCE 1977-01-04 18:00:00 TS -11.9250 79.7500 main 1996 1996 O________OO_O_ jtwc_sh SH051977 -11.9000 80.0000 -1 -11.9000 80.0000 TC 35 -11.9000 80.0000 2 -12.0000 79.0000 TC 35 10 266
1977001S11086 1977 1 SI MM CLARENCE 1977-01-04 21:00:00 TS -11.9478 79.2201 main 2000 2000 P________PP_P_ SH051977 -11.8999 79.5074 -1 -11.8999 79.5074 TC 35 -11.9236 79.5206 2 -12.0678 78.3450 TC 35 10 269
1977001S11086 1977 1 SI MM CLARENCE 1977-01-05 00:00:00 TS -11.9354 78.7293 main 2005 2005 O________OP_O_ jtwc_sh SH051977 -11.9000 79.0000 -1 -11.9000 79.0000 TC 35 -11.9418 79.0170 2 -12.0000 77.9000 TC 35 8 276
1977001S11086 1977 1 SI MM CLARENCE 1977-01-05 03:00:00 TS -11.8640 78.3833 main 2009 1999 P________PP_P_ SH051977 -11.9423 78.4725 -1 -11.9423 78.4725 TC 35 -11.9641 78.4800 2 -11.6073 78.1081 TC 35 7 284
1977001S11086 1977 1 SI MM CLARENCE 1977-01-05 06:00:00 TS -11.7647 78.0176 reunion main 2003 1994 O____O___OO_O_ jtwc_sh SH051977 -12.0000 77.9000 -1 -11.2000 78.3000 3 9.90000 -12.0000 77.9000 TC 35 -12.0000 77.9000 2 -11.2000 78.3000 TC 35 9 278
1977001S11086 1977 1 SI MM CLARENCE 1977-01-05 09:00:00 TS -11.7324 77.4394 main 2003 2003 P____P___PP_P_ SH051977 -12.0424 77.2724 -1 -11.1353 77.6874 3 -12.0424 77.2724 TC 35 -12.0605 77.2763 2 -11.0828 77.8124 TC 35 12 271
1977001S11086 1977 1 SI MM CLARENCE 1977-01-05 12:00:00 TS -11.7389 76.7863 reunion main 2016 2016 O____O___OP_O_ jtwc_sh SH051977 -12.1000 76.6000 -1 -11.1000 77.1000 99 9.90000 -12.1000 76.6000 TC 35 -12.1347 76.6099 2 -11.1000 77.1000 TC 35 12 268
1977001S11086 1977 1 SI MM CLARENCE 1977-01-05 15:00:00 TS -11.7712 76.1687 main 2042 2042 P____P___PP_P_ SH051977 -12.1998 75.9151 -1 -11.1198 76.5500 99 -12.1998 75.9151 TC 35 -12.2166 75.9137 2 -11.1198 76.5500 TC 35 12 264
1977001S11086 1977 1 SI MM CLARENCE 1977-01-05 18:00:00 TS -11.8600 75.5200 reunion main 2072 2052 O____O___OO_O_ jtwc_sh SH051977 -12.3000 75.2000 -1 -11.2000 76.0000 99 9.90000 -12.3000 75.2000 TC 35 -12.3000 75.2000 2 -11.2000 76.0000 TC 35 13 263
1977001S11086 1977 1 SI MM CLARENCE 1977-01-05 21:00:00 TS -11.9430 74.8329 main 2043 1981 P____P___PP_P_ SH051977 -12.3499 74.4499 -1 -11.3200 75.4000 99 -12.3499 74.4499 TC 35 -12.3750 74.4650 2 -11.3200 75.4000 TC 35 14 262
1977001S11086 1977 1 SI MM CLARENCE 1977-01-06 00:00:00 TS -12.0500 74.1440 reunion main 1966 1903 O____O___OP_O_ jtwc_sh SH051977 -12.4000 73.7000 -1 -11.5000 74.8000 99 9.90000 -12.4000 73.7000 TC 35 -12.4501 73.7200 2 -11.5000 74.8000 TC 35 13 259
1977001S11086 1977 1 SI MM CLARENCE 1977-01-06 03:00:00 TS -12.1988 73.5040 main 1903 1836 P____P___PP_P_ SH051977 -12.4999 72.9776 -1 -11.7345 74.2873 99 -12.4999 72.9776 TC 50 -12.5251 72.9900 2 -11.7345 74.2873 TC 35 13 256
1977001S11086 1977 1 SI MM CLARENCE 1977-01-06 06:00:00 TS -12.3600 72.8600 reunion main 1836 1764 O____O___OO_O_ jtwc_sh SH051977 -12.6000 72.3000 -1 -12.0000 73.7000 3 9.90000 -12.6000 72.3000 TC 65 -12.6000 72.3000 4 -12.0000 73.7000 TC 35 14 257
1977001S11086 1977 1 SI MM CLARENCE 1977-01-06 09:00:00 TS -12.4933 72.1489 main 1755 1693 P____P___PP_P_ SH051977 -12.6498 71.6774 -1 -12.2505 72.8501 3 -12.6498 71.6774 TC 65 -12.6659 71.6897 4 -12.2505 72.8501 TC 37 14 259
1977001S11086 1977 1 SI MM CLARENCE 1977-01-06 12:00:00 TS -12.6267 71.4639 reunion main 1693 1626 O____O___OP_O_ jtwc_sh SH051977 -12.7000 71.1000 -1 -12.5000 72.0000 99 9.90000 -12.7000 71.1000 TC 65 -12.7337 71.1196 4 -12.5000 72.0000 TC 40 12 257
1977001S11086 1977 1 SI MM CLARENCE 1977-01-06 15:00:00 TS -12.7815 70.9158 main 1626 1574 P____P___PP_P_ SH051977 -12.7923 70.5500 -1 -12.7567 71.4572 99 -12.7923 70.5500 TC 65 -12.8097 70.5647 4 -12.7567 71.4572 TC 42 11 254
1977001S11086 1977 1 SI MM CLARENCE 1977-01-06 18:00:00 TS -12.9400 70.3600 reunion main 1574 1498 O____O___OO_O_ jtwc_sh SH051977 -12.9000 70.0000 -1 -13.0000 70.9000 99 9.90000 -12.9000 70.0000 TC 65 -12.9000 70.0000 4 -13.0000 70.9000 TC 45 13 256
1977001S11086 1977 1 SI MM CLARENCE 1977-01-06 21:00:00 TS -13.0791 69.6538 main 1498 1429 P____P___PP_P_ SH051977 -12.9924 69.4149 -1 -13.2005 70.0149 99 -12.9924 69.4149 TC 65 -13.0100 69.4096 4 -13.2005 70.0149 TC 47 14 258
1977001S11086 1977 1 SI MM CLARENCE 1977-01-07 00:00:00 TS -13.2268 68.9204 reunion main 1420 1354 O____O___OP_O_ jtwc_sh SH051977 -13.1000 68.8000 -1 -13.4000 69.1000 99 9.90000 -13.1000 68.8000 TC 65 -13.1340 68.8023 4 -13.4000 69.1000 TC 50 14 256
1977001S11086 1977 1 SI MM CLARENCE 1977-01-07 03:00:00 TS -13.4190 68.2588 main 1354 1288 P____P___PP_P_ SH051977 -13.2498 68.1725 -1 -13.6647 68.3901 99 -13.2498 68.1725 TC 65 -13.2661 68.1688 4 -13.6647 68.3901 TC 52 13 254
1977001S11086 1977 1 SI MM CLARENCE 1977-01-07 06:00:00 TS -13.6000 67.6200 reunion main 1279 1221 O____O___OO_O_ jtwc_sh SH051977 -13.4000 67.5000 -1 -13.9000 67.8000 3 9.90000 -13.4000 67.5000 TC 65 -13.4000 67.5000 4 -13.9000 67.8000 TC 55 13 257
1977001S11086 1977 1 SI MM CLARENCE 1977-01-07 09:00:00 TS -13.6986 66.9978 main 1221 1162 P____P___PP_P_ SH051977 -13.4999 66.7648 -1 -13.9843 67.3368 3 -13.4999 66.7648 TC 65 -13.5248 66.7858 4 -13.9843 67.3368 TC 55 13 261
1977001S11086 1977 1 SI MM CLARENCE 1977-01-07 12:00:00 TS -13.8099 66.3274 reunion main 1154 1081 O____O___OP_O_ jtwc_sh SH051977 -13.6000 66.0000 -1 -14.1000 66.8000 99 9.90000 -13.6000 66.0000 TC 65 -13.6497 66.0372 4 -14.1000 66.8000 TC 55 15 257
1977001S11086 1977 1 SI MM CLARENCE 1977-01-07 15:00:00 TS -14.0349 65.5413 main 1073 986 P____P___PP_P_ SH051977 -13.7498 65.2500 -1 -14.4501 65.9682 99 -13.7498 65.2500 TC 65 -13.7747 65.2700 4 -14.4501 65.9682 TC 57 16 254
1977001S11086 1977 1 SI MM CLARENCE 1977-01-07 18:00:00 TS -14.2600 64.7000 reunion main 986 916 O____O___OO_O_ jtwc_sh SH051977 -13.9000 64.5000 -1 -14.8000 65.0000 99 9.90000 -13.9000 64.5000 TC 65 -13.9000 64.5000 4 -14.8000 65.0000 TC 60 17 258
1977001S11086 1977 1 SI MM CLARENCE 1977-01-07 21:00:00 TS -14.3758 63.8554 main 916 849 P____P___PP_P_ SH051977 -13.9998 63.7498 -1 -14.9377 64.0121 99 -13.9998 63.7498 TC 65 -14.0039 63.7533 4 -14.9377 64.0121 TC 60 16 263
1977001S11086 1977 1 SI MM CLARENCE 1977-01-08 00:00:00 TS -14.4623 63.0413 reunion main 842 792 O____O___OP_O_ jtwc_sh SH051977 -14.1000 63.0000 -1 -15.0000 63.1000 99 9.90000 -14.1000 63.0000 TC 65 -14.1114 63.0063 4 -15.0000 63.1000 TC 60 15 262
1977001S11086 1977 1 SI MM CLARENCE 1977-01-08 03:00:00 TS -14.5782 62.3251 main 785 738 P____P___PP_P_ SH051977 -14.2347 62.2574 -1 -15.0917 62.4273 99 -14.2347 62.2574 TC 65 -14.2383 62.2562 4 -15.0917 62.4273 TC 62 14 259
1977001S11086 1977 1 SI MM CLARENCE 1977-01-08 06:00:00 TS -14.7200 61.6200 reunion main 732 673 O____O___OO_O_ jtwc_sh SH051977 -14.4000 61.5000 -1 -15.2000 61.8000 4 9.90000 -14.4000 61.5000 TC 65 -14.4000 61.5000 4 -15.2000 61.8000 TC 65 15 258
1977001S11086 1977 1 SI MM CLARENCE 1977-01-08 09:00:00 TS -14.8798 60.8084 main 668 614 P____P___PP_P_ SH051977 -14.5774 60.6998 -1 -15.3349 61.0224 4 -14.5774 60.6998 TC 65 -14.5738 60.6872 4 -15.3357 60.9327 TC 65 16 257
1977001S11086 1977 1 SI MM CLARENCE 1977-01-08 12:00:00 TS -15.0776 60.0149 reunion main 610 566 O____O___OP_O_ jtwc_sh SH051977 -14.8000 59.9000 -1 -15.5000 60.2000 99 9.90000 -14.8000 59.9000 TC 65 -14.7881 59.8745 4 -15.5000 60.2000 TC 65 15 253
1977001S11086 1977 1 SI MM CLARENCE 1977-01-08 15:00:00 TS -15.3164 59.3478 main 563 516 P____P___PP_P_ SH051977 -15.0550 59.1123 -1 -15.7076 59.3627 99 -15.0550 59.1123 TC 65 -15.0583 59.0995 4 -15.7060 60.0520 TC 67 14 247
1977001S11086 1977 1 SI MM CLARENCE 1977-01-08 18:00:00 TS -15.6000 58.7200 reunion main 514 471 O____O___OO_O_ jtwc_sh SH051977 -15.4000 58.4000 -1 -15.9000 58.6000 99 9.90000 -15.4000 58.4000 TC 65 -15.4000 58.4000 4 -15.9000 59.8000 TC 70 14 245
1977001S11086 1977 1 SI MM CLARENCE 1977-01-08 21:00:00 TS -15.9174 58.0216 main 471 425 P____P___PP_P_ SH051977 -15.8697 57.8049 -1 -15.9846 57.9971 99 -15.8697 57.8049 TC 65 -15.8755 57.8136 4 -15.9874 58.6873 TC 70 15 242
1977001S11086 1977 1 SI MM CLARENCE 1977-01-09 00:00:00 TS -16.2827 57.3807 reunion main 425 384 O____O___OP_O_ jtwc_sh SH051977 -16.4000 57.3000 -1 -16.1000 57.5000 99 9.90000 -16.4000 57.3000 TC 65 -16.4133 57.3036 4 -16.1000 57.5000 TC 70 13 233
1977001S11086 1977 1 SI MM CLARENCE 1977-01-09 03:00:00 TS -16.7234 56.9163 main 385 348 P____P___PP_P_ SH051977 -16.9448 56.8350 -1 -16.3920 57.0800 99 -16.9448 56.8350 TC 65 -16.9446 56.8417 4 -16.3910 56.9899 TC 72 12 226
1977001S11086 1977 1 SI MM CLARENCE 1977-01-09 06:00:00 TS -17.1200 56.4800 reunion main 351 341 O____O___OO_O_ jtwc_sh SH051977 -17.4000 56.4000 -1 -16.7000 56.6000 4 9.90000 -17.4000 56.4000 TC 65 -17.4000 56.4000 4 -16.7000 56.6000 TC 75 11 238
1977001S11086 1977 1 SI MM CLARENCE 1977-01-09 09:00:00 TS -17.3339 55.9133 main 355 351 P____P___PP_P_ SH051977 -17.6449 55.9496 -1 -16.8429 55.8646 4 -17.6449 55.9496 TC 65 -17.6938 55.9384 4 -16.8429 55.8646 TC 75 12 251
1977001S11086 1977 1 SI MM CLARENCE 1977-01-09 12:00:00 TS -17.5008 55.3382 reunion main 371 369 O____O___OP_O_ jtwc_sh SH051977 -17.8000 55.5000 -1 -17.0000 55.1000 99 9.90000 -17.8000 55.5000 TC 65 -17.9042 55.4909 4 -17.0000 55.1000 TC 75 11 248
1977001S11086 1977 1 SI MM CLARENCE 1977-01-09 15:00:00 TS -17.7523 54.8347 main 361 345 P____P___PP_P_ SH051977 -18.0074 55.0500 -1 -17.3421 54.5127 99 -18.0074 55.0500 TC 65 -18.0625 55.0480 4 -17.3421 54.5127 TC 77 11 242
1977001S11086 1977 1 SI MM CLARENCE 1977-01-09 18:00:00 TS -18.0000 54.3600 reunion main 348 344 O____O___OO_O_ jtwc_sh SH051977 -18.2000 54.6000 -1 -17.7000 54.0000 99 9.90000 -18.2000 54.6000 TC 65 -18.2000 54.6000 4 -17.7000 54.0000 TC 80 10 245
1977001S11086 1977 1 SI MM CLARENCE 1977-01-09 21:00:00 TS -18.1682 53.8760 main 345 345 P____P___PP_P_ SH051977 -18.3573 54.1573 -1 -17.8849 53.4769 99 -18.3573 54.1573 TC 65 -18.3563 54.1115 4 -17.8849 53.4769 TC 80 10 249
1977001S11086 1977 1 SI MM CLARENCE 1977-01-10 00:00:00 TS -18.3400 53.4039 reunion main 361 352 O____O___OP_O_ jtwc_sh SH051977 -18.5000 53.7000 -1 -18.1000 53.0000 99 9.90000 -18.5000 53.7000 TC 65 -18.5001 53.6195 4 -18.1000 53.0000 TC 80 10 244
1977001S11086 1977 1 SI MM CLARENCE 1977-01-10 03:00:00 TS -18.6027 52.9366 main 367 336 P____P___PP_P_ SH051977 -18.6425 53.1924 -1 -18.5424 52.5777 99 -18.6425 53.1924 TC 65 -18.6439 53.1428 4 -18.5424 52.5777 TC 80 10 238
1977001S11086 1977 1 SI MM CLARENCE 1977-01-10 06:00:00 TS -18.8800 52.5000 reunion main 336 301 O____O___OO_O_ jtwc_sh SH051977 -18.8000 52.7000 -1 -19.0000 52.2000 4 9.90000 -18.8000 52.7000 TC 65 -18.8000 52.7000 4 -19.0000 52.2000 TC 80 9 238
1977001S11086 1977 1 SI MM CLARENCE 1977-01-10 09:00:00 TS -19.1020 52.0952 main 301 281 P____P___PP_P_ SH051977 -18.9924 52.2700 -1 -19.2800 51.8272 4 -18.9924 52.2700 TC 65 -18.9651 52.2814 4 -19.2800 51.8272 TC 77 8 239
1977001S11086 1977 1 SI MM CLARENCE 1977-01-10 12:00:00 TS -19.3095 51.7405 reunion main 271 247 O____O___OP_O_ jtwc_sh SH051977 -19.2000 51.9000 -1 -19.5000 51.5000 99 9.90000 -19.2000 51.9000 TC 65 -19.1473 51.9023 4 -19.5000 51.5000 TC 75 8 237
1977001S11086 1977 1 SI MM CLARENCE 1977-01-10 15:00:00 TS -19.5131 51.4303 main 247 233 P____P___PP_P_ SH051977 -19.3774 51.5698 -1 -19.7274 51.2199 99 -19.3774 51.5698 TC 65 -19.3559 51.5721 4 -19.7274 51.2199 TC 72 7 230
1977001S11086 1977 1 SI MM CLARENCE 1977-01-10 18:00:00 TS -19.7600 51.1800 reunion main 237 227 O____O___OO_O_ jtwc_sh SH051977 -19.6000 51.3000 -1 -20.0000 51.0000 99 9.90000 -19.6000 51.3000 TC 65 -19.6000 51.3000 4 -20.0000 51.0000 TC 70 7 216
1977001S11086 1977 1 SI MM CLARENCE 1977-01-10 21:00:00 TS -20.1174 50.9702 main 230 213 P____P___PP_P_ SH051977 -19.9350 51.0700 -1 -20.4000 50.8275 99 -19.9350 51.0700 TC 65 -19.9172 51.0561 4 -20.4000 50.8275 TC 70 8 205
1977001S11086 1977 1 SI MM CLARENCE 1977-01-11 00:00:00 TS -20.4929 50.8146 reunion main 215 212 O____O___OP_O_ jtwc_sh SH051977 -20.3000 50.9000 -1 -20.8000 50.7000 99 9.90000 -20.3000 50.9000 TC 65 -20.2646 50.8728 4 -20.8000 50.7000 TC 70 7 201
1977001S11086 1977 1 SI MM CLARENCE 1977-01-11 03:00:00 TS -20.7959 50.6866 main 217 212 P____P___PP_P_ SH051977 -20.6225 50.7625 -1 -21.0650 50.5774 99 -20.6225 50.7625 TC 65 -20.6048 50.7530 4 -21.0650 50.5774 TC 67 6 198
1977001S11086 1977 1 SI MM CLARENCE 1977-01-11 06:00:00 TS -21.0600 50.6200 reunion main 221 221 O____O___OO_O_ jtwc_sh SH051977 -20.9000 50.7000 -1 -21.3000 50.5000 3 9.90000 -20.9000 50.7000 TC 65 -20.9000 50.7000 4 -21.3000 50.5000 TC 65 5 189
1977001S11086 1977 1 SI MM CLARENCE 1977-01-11 09:00:00 TS -21.3114 50.6066 main 230 230 P____P___PP_P_ SH051977 -21.1300 50.7199 -1 -21.5924 50.4477 3 -21.1300 50.7199 TC 65 -21.1124 50.6977 4 -21.5924 50.4477 TC 62 5 176
1977001S11086 1977 1 SI MM CLARENCE 1977-01-11 12:00:00 TS -21.5350 50.6719 reunion main 244 244 O____O___OP_O_ jtwc_sh SH051977 -21.3000 50.8000 -1 -21.9000 50.5000 99 9.90000 -21.3000 50.8000 TC 65 -21.2749 50.7595 4 -21.9000 50.5000 TC 60 5 156
1977001S11086 1977 1 SI MM CLARENCE 1977-01-11 15:00:00 TS -21.7350 50.8122 main 260 260 P____P___PP_P_ SH051977 -21.4225 50.8925 -1 -22.2150 50.7048 99 -21.4225 50.8925 TC 65 -21.3999 50.8666 4 -22.2150 50.7048 TC 60 5 140
1977001S11086 1977 1 SI MM CLARENCE 1977-01-11 18:00:00 TS -21.9000 51.0000 reunion main 284 284 O____O___OO_O_ jtwc_sh SH051977 -21.5000 51.0000 -1 -22.5000 51.0000 99 9.90000 -21.5000 51.0000 TC 65 -21.5000 51.0000 4 -22.5000 51.0000 TC 60 4 131
1977001S11086 1977 1 SI MM CLARENCE 1977-01-11 21:00:00 TS -22.0266 51.1741 main 306 306 P____P___PP_P_ SH051977 -21.5500 51.0851 -1 -22.7225 51.3001 99 -21.5500 51.0851 TC 65 -21.5882 51.1003 4 -22.7225 51.3001 TC 57 4 124
1977001S11086 1977 1 SI MM CLARENCE 1977-01-12 00:00:00 TS -22.1314 51.3651 reunion main 329 329 O____O___OP_O_ jtwc_sh SH051977 -21.6000 51.2000 -1 -22.9000 51.6000 99 9.90000 -21.6000 51.2000 TC 65 -21.6571 51.2254 4 -22.9000 51.6000 TC 55 4 122
1977001S11086 1977 1 SI MM CLARENCE 1977-01-12 03:00:00 TS -22.2504 51.5656 main 354 354 P____P___PP_P_ SH051977 -21.6925 51.3700 -1 -23.0724 51.8501 99 -21.6925 51.3700 TC 65 -21.7225 51.3879 4 -23.0724 51.8501 TC 52 5 120
1977001S11086 1977 1 SI MM CLARENCE 1977-01-12 06:00:00 TS -22.3600 51.8000 reunion main 376 351 O____O___OO_O_ jtwc_sh SH051977 -21.8000 51.6000 -1 -23.2000 52.1000 3 9.90000 -21.8000 51.6000 TC 65 -21.8000 51.6000 4 -23.2000 52.1000 TC 50 5 112
1977001S11086 1977 1 SI MM CLARENCE 1977-01-12 09:00:00 TS -22.4430 52.0912 main 351 327 P____P___PP_P_ SH051977 -21.8925 51.8776 -1 -23.2576 52.4151 3 -21.8925 51.8776 TC 65 -21.9148 51.8705 4 -23.2576 52.4151 TC 47 6 107
1977001S11086 1977 1 SI MM CLARENCE 1977-01-12 12:00:00 TS -22.5285 52.3980 reunion main 327 304 O____O___OP_O_ jtwc_sh SH051977 -22.0000 52.2000 -1 -23.3000 52.7000 99 9.90000 -22.0000 52.2000 TC 65 -22.0427 52.1898 4 -23.3000 52.7000 TC 45 6 111
1977001S11086 1977 1 SI MM CLARENCE 1977-01-12 15:00:00 TS -22.6518 52.6678 main 310 292 P____P___PP_P_ SH051977 -22.1575 52.5424 -1 -23.3848 52.8576 99 -22.1575 52.5424 TC 65 -22.1741 52.5392 4 -23.3848 52.8576 TC 42 6 117
1977001S11086 1977 1 SI MM CLARENCE 1977-01-12 18:00:00 TS -22.7800 52.9400 reunion main 298 273 O____O___OO_O_ jtwc_sh SH051977 -22.3000 52.9000 -1 -23.5000 53.0000 99 9.90000 -22.3000 52.9000 TC 65 -22.3000 52.9000 4 -23.5000 53.0000 TC 40 6 112
1977001S11086 1977 1 SI MM CLARENCE 1977-01-12 21:00:00 TS -22.8710 53.2601 main 272 257 P____P___PP_P_ SH051977 -22.3499 53.2503 -1 -23.6501 53.2499 99 -22.3499 53.2503 TC 50 -22.3548 53.3000 4 -23.6501 53.2499 TC 37 6 107
1977001S11086 1977 1 SI MM CLARENCE 1977-01-13 00:00:00 TS -22.9621 53.5795 reunion main 258 238 O____O___OP_O_ jtwc_sh SH051977 -22.4000 53.6000 -1 -23.8000 53.5000 99 9.90000 -22.4000 53.6000 TC 35 -22.4107 53.6977 4 -23.8000 53.5000 TC 35 6 108
1977001S11086 1977 1 SI MM CLARENCE 1977-01-13 03:00:00 TS -23.0552 53.8704 main 247 241 P____P___PP_P_ SH051977 -22.4976 53.9800 -1 -23.8849 53.6726 99 -22.4976 53.9800 TC 35 -22.5111 54.0466 4 -23.8849 53.6726 TC 32 5 118
1977001S11086 1977 1 SI MM CLARENCE 1977-01-13 06:00:00 MX -23.2200 54.1000 reunion main 245 245 O____O___OO_O_ jtwc_sh SH051977 -22.7000 54.3000 -1 -24.0000 53.8000 3 9.90000 -22.7000 54.3000 TC 35 -22.7000 54.3000 2 -24.0000 53.8000 EX 30 6 142
1977001S11086 1977 1 SI MM CLARENCE 1977-01-13 09:00:00 MX -23.5199 54.2686 main 266 266 P____P___PP_P_ SH051977 -23.0549 54.5247 -1 -24.2275 53.9224 3 -23.0549 54.5247 TC 35 -23.0350 54.4488 2 -24.2275 53.9224 EX 30 7 162
1977001S11086 1977 1 SI MM CLARENCE 1977-01-13 12:00:00 MX -23.8918 54.3388 reunion main 308 308 O____O___OP_O_ jtwc_sh SH051977 -23.5000 54.6000 -1 -24.5000 54.0000 99 9.90000 -23.5000 54.6000 TC 35 -23.4591 54.4941 2 -24.5000 54.0000 EX 30 7 177
1977001S11086 1977 1 SI MM CLARENCE 1977-01-13 15:00:00 MX -24.2567 54.3075 main 350 350 P____P___PP_P_ SH051977 -23.9499 54.5176 -1 -24.7275 54.0300 99 -23.9499 54.5176 TC 35 -23.9288 54.4424 2 -24.7275 54.0300 EX 30 8 191
1977001S11086 1977 1 SI MM CLARENCE 1977-01-13 18:00:00 MX -24.6400 54.1800 reunion main 385 385 O____O___OO_O_ jtwc_sh SH051977 -24.4000 54.3000 -1 -25.0000 54.0000 99 9.90000 -24.4000 54.3000 TC 35 -24.4000 54.3000 2 -25.0000 54.0000 EX 30 8 200
1977001S11086 1977 1 SI MM CLARENCE 1977-01-13 21:00:00 MX -25.0443 53.9974 main 434 434 P____P___PP_P_ SH051977 -24.8075 54.0225 -1 -25.4074 53.9375 99 -24.8075 54.0225 TC 35 -24.7915 54.0669 2 -25.4074 53.9375 EX 30 9 206
1977001S11086 1977 1 SI MM CLARENCE 1977-01-14 00:00:00 MX -25.4357 53.7508 reunion main 483 483 O____O___OP_O_ jtwc_sh SH051977 -25.2000 53.7000 -1 -25.8000 53.8000 99 9.90000 -25.2000 53.7000 TC 35 -25.1784 53.7538 2 -25.8000 53.8000 EX 30 9 215
1977001S11086 1977 1 SI MM CLARENCE 1977-01-14 03:00:00 MX -25.7462 53.4626 main 524 524 P____P___PP_P_ SH051977 -25.5850 53.3849 -1 -25.9926 53.5647 99 -25.5850 53.3849 TC 35 -25.5760 53.4136 2 -25.9926 53.5647 EX 30 8 219
1977001S11086 1977 1 SI MM CLARENCE 1977-01-14 06:00:00 MX -26.0800 53.1800 reunion main 577 577 O____O___OO_O_ jtwc_sh SH051977 -26.0000 53.1000 -1 -26.2000 53.3000 3 9.90000 -26.0000 53.1000 TC 35 -26.0000 53.1000 2 -26.2000 53.3000 EX 30 9 210
1977001S11086 1977 1 SI MM CLARENCE 1977-01-14 09:00:00 MX -26.5392 52.9570 main 613 604 P____P___PP_P_ SH051977 -26.4849 52.8773 -1 -26.6274 53.0926 3 -26.4849 52.8773 TC 35 -26.4711 52.8450 2 -26.6274 53.0926 EX 30 10 201
1977001S11086 1977 1 SI MM CLARENCE 1977-01-14 12:00:00 MX -27.0340 52.7662 reunion main 611 605 O____O___OP_O_ jtwc_sh SH051977 -27.0000 52.7000 -1 -27.1000 52.9000 99 9.90000 -27.0000 52.7000 TC 35 -26.9698 52.6312 2 -27.1000 52.9000 EX 30 10 199
1977001S11086 1977 1 SI MM CLARENCE 1977-01-14 15:00:00 MX -27.4707 52.5921 main 614 611 P____P___PP_P_ SH051977 -27.5000 52.5349 -1 -27.4349 52.7070 99 -27.5000 52.5349 TC 35 -27.4836 52.4767 2 -27.4349 52.7070 EX 30 9 198
1977001S11086 1977 1 SI MM CLARENCE 1977-01-14 18:00:00 MX -27.9200 52.4400 reunion main 618 618 O____O___OO_O_ jtwc_sh SH051977 -28.0000 52.4000 -1 -27.8000 52.5000 99 9.90000 -28.0000 52.4000 TC 35 -28.0000 52.4000 2 -27.8000 52.5000 EX 30 10 198
1977001S11086 1977 1 SI MM CLARENCE 1977-01-14 21:00:00 MX -28.4286 52.2481 main 632 632 P____P___PP_P_ SH051977 -28.4999 52.2332 -1 -28.3201 52.2206 99 -28.4999 52.2332 TC 35 -28.5028 52.3331 2 -28.3201 52.2206 EX 30 11 194
1977001S11086 1977 1 SI MM CLARENCE 1977-01-15 00:00:00 MX -28.9611 52.1511 reunion main 673 666 O____O___OP_O_ jtwc_sh SH051977 -29.0000 52.2000 -1 -28.9000 52.0000 99 9.90000 -29.0000 52.2000 TC 35 -29.0052 52.3555 2 -28.9000 52.0000 EX 30 10 0
1977001S11086 1977 1 SI MM CLARENCE 1977-01-15 03:00:00 MX -29.4688 52.2193 main 710 710 P____P___PP_P_ SH051977 -29.4996 52.3877 -1 -29.4198 51.9105 99 -29.4996 52.3877 TC 35 -29.5052 52.4999 2 -29.4198 51.9105 EX 30 11 165
1977001S11086 1977 1 SI MM CLARENCE 1977-01-15 06:00:00 MX -30.0000 52.4800 reunion main 769 769 O____O___OO_O_ jtwc_sh SH051977 -30.0000 52.8000 -1 -30.0000 52.0000 5 9.90000 -30.0000 52.8000 TC 35 -30.0000 52.8000 2 -30.0000 52.0000 EX 30 13 152
1977001S11086 1977 1 SI MM CLARENCE 1977-01-15 09:00:00 MX -30.5978 52.9170 main 843 843 P____P___PP_P_ SH051977 -30.5078 53.3972 -1 -30.7347 52.2526 5 -30.5078 53.3972 TC 35 -30.5039 53.2852 2 -30.7347 52.2526 EX 30 15 144
1977001S11086 1977 1 SI MM CLARENCE 1977-01-15 12:00:00 MX -31.1994 53.5048 reunion main 931 931 O____O___OP_O_ jtwc_sh SH051977 -31.0000 54.1000 -1 -31.5000 52.7000 99 9.90000 -31.0000 54.1000 TC 35 -30.9970 53.9242 2 -31.5000 52.7000 EX 30 16 138
1977001S11086 1977 1 SI MM CLARENCE 1977-01-15 15:00:00 MX -31.7539 54.1348 main 1019 1019 P____P___PP_P_ SH051977 -31.4722 54.7504 -1 -32.1794 53.2608 99 -31.4722 54.7504 TC 35 -31.4662 54.6515 2 -32.1794 53.2608 EX 30 16 133
1977001S11086 1977 1 SI MM CLARENCE 1977-01-15 18:00:00 MX -32.2600 54.8400 reunion main 1105 1105 O____O___OO_O_ jtwc_sh SH051977 -31.9000 55.4000 -1 -32.8000 54.0000 99 9.90000 -31.9000 55.4000 TC 35 -31.9000 55.4000 2 -32.8000 54.0000 EX 30 15 128
1977001S11086 1977 1 SI MM CLARENCE 1977-01-15 21:00:00 MX -32.7079 55.5572 main 1190 1190 P____P___PP_P_ SH051977 -32.2645 56.0434 -1 -33.3648 54.8911 99 -32.2645 56.0434 TC 35 -32.2809 55.9170 2 -33.3648 54.8911 EX 27 15 121
1977001S11086 1977 1 SI MM CLARENCE 1977-01-16 00:00:00 MX -33.0400 56.3803 reunion main 1267 1267 O____O___OP_O_ jtwc_sh SH051977 -32.6000 56.7000 -1 -33.9000 55.9000 99 9.90000 -32.6000 56.7000 TC 35 -32.6298 56.4614 2 -33.9000 55.9000 EX 25 15 115
1977001S11086 1977 1 SI MM CLARENCE 1977-01-16 03:00:00 MX -33.3267 57.1750 main 1338 1338 P____P___PP_P_ SH051977 -32.9478 57.3042 -1 -34.4466 56.9421 99 -32.9478 57.3042 TC 35 -32.9646 57.1495 2 -34.4466 56.9421 EX 25 15 109
1977001S11086 1977 1 SI MM CLARENCE 1977-01-16 06:00:00 MX -33.5429 58.0857 reunion main 1373 1373 O____O___OO_O_ jtwc_sh SH051977 -33.3000 58.1000 -1 -35.0000 58.0000 5 9.90000 -33.3000 58.1000 TC 35 -33.3000 58.1000 2 -35.0000 58.0000 EX 25 18 101
1977001S11086 1977 1 SI MM CLARENCE 1977-01-16 09:00:00 TS -33.6507 59.2708 main 1420 1420 P________PP___ SH051977 -33.6546 59.2063 -1 5 -33.6546 59.2063 TC 30 -33.6428 59.3998 2 EX 23 101
1977001S11086 1977 1 SI MM CLARENCE 1977-01-16 12:00:00 TS -33.9940 60.7984 main 1496 1496 O________OP___ jtwc_sh SH051977 -34.0000 60.7000 -1 -34.0000 60.7000 TC 25 -33.9820 60.9952 2 29 103
1977001S11086 1977 1 SI MM CLARENCE 1977-01-16 15:00:00 TS -34.3140 62.6558 main 1598 1598 P________PP___ SH051977 -34.3189 62.5867 -1 -34.3189 62.5867 TC 25 -34.3042 62.7940 2 33 101
1977001S11086 1977 1 SI MM CLARENCE 1977-01-16 18:00:00 TS -34.6000 64.7000 main 1616 O________OO___ jtwc_sh SH051977 -34.6000 64.7000 -1 -34.6000 64.7000 TC 25 -34.6000 64.7000 6 34 100

IBTrACS Databaseについて

本データベースは、米国NOAAが公開する1842年以降の世界の熱帯低気圧のベストトラックデータアーカイブInternational Best Track Archive for Climate Stewardship (IBTrACS)を、ウェブで閲覧しやすい形式に変換したものです。

最終更新日:2021-10-08